createdAt,value
2022-11-07T00:01:46.820Z,58.99
2022-11-07T00:04:14.266Z,58.68
2022-11-07T00:06:42.010Z,58.74
2022-11-07T00:09:08.948Z,58.69
2022-11-07T00:11:35.927Z,58.52
2022-11-07T00:14:02.907Z,58.57
2022-11-07T00:16:29.916Z,58.45
2022-11-07T00:18:56.879Z,58.54
2022-11-07T00:21:24.087Z,58.42
2022-11-07T00:23:51.180Z,58.26
2022-11-07T00:26:18.338Z,58.35
2022-11-07T00:28:45.797Z,58.25
2022-11-07T00:31:14.421Z,58.62
2022-11-07T00:33:42.744Z,57.91
2022-11-07T00:36:10.457Z,58.34
2022-11-07T00:38:37.746Z,58.27
2022-11-07T00:41:06.686Z,57.87
2022-11-07T00:43:34.396Z,58.23
2022-11-07T00:46:03.159Z,58.11
2022-11-07T00:48:30.697Z,58.38
2022-11-07T00:50:58.097Z,58.30
2022-11-07T00:53:25.160Z,58.15
2022-11-07T00:55:52.285Z,58.14
2022-11-07T00:58:19.321Z,58.66
2022-11-07T01:00:46.318Z,58.33
2022-11-07T01:03:31.885Z,58.29
2022-11-07T01:06:01.602Z,58.13
2022-11-07T01:08:29.595Z,58.33
2022-11-07T01:10:58.158Z,58.30
2022-11-07T01:13:26.441Z,58.93
2022-11-07T01:15:53.790Z,58.60
2022-11-07T01:18:21.191Z,58.99
2022-11-07T01:20:49.763Z,58.96
2022-11-07T01:23:18.296Z,58.77
2022-11-07T01:25:45.799Z,59.00
2022-11-07T01:28:12.764Z,58.70
2022-11-07T01:30:44.419Z,58.30
2022-11-07T01:33:11.797Z,58.18
2022-11-07T01:35:39.098Z,58.13
2022-11-07T01:38:06.558Z,58.19
2022-11-07T01:40:56.678Z,57.93
2022-11-07T01:43:23.619Z,57.65
2022-11-07T01:45:50.618Z,57.62
2022-11-07T01:48:17.700Z,57.66
2022-11-07T01:50:44.811Z,58.26
2022-11-07T01:53:12.139Z,57.91
2022-11-07T01:55:39.338Z,57.90
2022-11-07T01:58:09.301Z,58.07
2022-11-07T02:00:37.238Z,57.91
2022-11-07T02:03:15.678Z,57.84
2022-11-07T02:06:06.718Z,58.54
2022-11-07T02:08:34.745Z,58.88
2022-11-07T02:11:03.999Z,58.54
2022-11-07T02:13:32.419Z,59.20
2022-11-07T02:16:00.282Z,58.70
2022-11-07T02:18:28.257Z,58.48
2022-11-07T02:20:59.658Z,59.00
2022-11-07T02:23:40.018Z,58.94
2022-11-07T02:26:07.053Z,58.97
2022-11-07T02:28:36.919Z,59.14
2022-11-07T02:31:04.077Z,58.65
2022-11-07T02:33:31.058Z,58.59
2022-11-07T02:35:58.618Z,58.77
2022-11-07T02:38:36.775Z,59.10
2022-11-07T02:41:09.619Z,59.84
2022-11-07T02:43:39.897Z,60.37
2022-11-07T02:46:10.377Z,59.85
2022-11-07T02:48:46.433Z,60.45
2022-11-07T02:51:13.757Z,59.99
2022-11-07T02:53:40.839Z,59.79
2022-11-07T02:56:08.438Z,60.06
2022-11-07T02:58:35.605Z,59.80
2022-11-07T03:01:07.224Z,59.77
2022-11-07T03:03:39.918Z,59.58
2022-11-07T03:06:08.939Z,59.58
2022-11-07T03:08:36.238Z,59.31
2022-11-07T03:11:03.977Z,60.23
2022-11-07T03:13:31.558Z,59.95
2022-11-07T03:15:58.759Z,60.30
2022-11-07T03:18:25.861Z,60.19
2022-11-07T03:20:52.961Z,60.06
2022-11-07T03:23:19.897Z,60.03
2022-11-07T03:25:46.958Z,60.11
2022-11-07T03:28:13.897Z,60.32
2022-11-07T03:30:40.837Z,60.37
2022-11-07T03:33:08.278Z,60.19
2022-11-07T03:35:35.519Z,59.86
2022-11-07T03:38:02.641Z,60.18
2022-11-07T03:40:29.699Z,60.31
2022-11-07T03:42:56.826Z,58.90
2022-11-07T03:45:23.963Z,58.51
2022-11-07T03:47:50.937Z,58.31
2022-11-07T03:50:20.518Z,58.31
2022-11-07T03:52:48.940Z,58.20
2022-11-07T03:55:18.453Z,58.33
2022-11-07T03:57:46.399Z,58.45
2022-11-07T04:00:14.822Z,58.55
2022-11-07T04:02:42.354Z,59.09
2022-11-07T04:05:10.208Z,59.50
2022-11-07T04:07:37.319Z,59.17
2022-11-07T04:10:04.826Z,59.52
2022-11-07T04:12:50.538Z,59.48
2022-11-07T04:15:36.039Z,59.45
2022-11-07T04:18:03.138Z,59.26
2022-11-07T04:20:30.161Z,59.25
2022-11-07T04:22:57.300Z,58.90
2022-11-07T04:25:44.462Z,58.79
2022-11-07T04:28:11.799Z,58.70
2022-11-07T04:30:38.700Z,58.62
2022-11-07T04:33:05.697Z,58.67
2022-11-07T04:35:33.559Z,58.51
2022-11-07T04:38:01.398Z,58.82
2022-11-07T04:40:29.499Z,59.25
2022-11-07T04:42:56.598Z,59.73
2022-11-07T04:45:24.168Z,60.00
2022-11-07T04:47:51.418Z,60.65
2022-11-07T04:50:20.123Z,60.17
2022-11-07T04:52:47.943Z,59.90
2022-11-07T04:55:26.699Z,59.66
2022-11-07T04:57:53.882Z,60.43
2022-11-07T05:00:21.139Z,60.02
2022-11-07T05:02:49.094Z,59.69
2022-11-07T05:05:17.097Z,59.49
2022-11-07T05:07:44.562Z,59.31
2022-11-07T05:10:23.837Z,60.44
2022-11-07T05:12:51.247Z,59.88
2022-11-07T05:15:18.740Z,60.50
2022-11-07T05:17:46.517Z,60.21
2022-11-07T05:20:27.933Z,60.49
2022-11-07T05:23:16.166Z,60.23
2022-11-07T05:25:45.732Z,60.07
2022-11-07T05:28:15.620Z,59.71
2022-11-07T05:30:44.613Z,59.80
2022-11-07T05:33:14.221Z,60.17
2022-11-07T05:35:41.862Z,59.81
2022-11-07T05:38:09.694Z,59.78
2022-11-07T05:40:38.654Z,59.76
2022-11-07T05:43:08.491Z,60.06
2022-11-07T05:45:38.052Z,60.09
2022-11-07T05:48:07.572Z,60.06
2022-11-07T05:50:35.533Z,60.59
2022-11-07T05:53:03.285Z,60.80
2022-11-07T05:55:30.612Z,61.48
2022-11-07T05:57:58.433Z,60.33
2022-11-07T06:00:27.290Z,60.01
2022-11-07T06:03:02.040Z,60.70
2022-11-07T06:05:29.892Z,60.50
2022-11-07T06:07:57.131Z,60.75
2022-11-07T06:10:24.694Z,61.27
2022-11-07T06:13:02.969Z,60.94
2022-11-07T06:15:32.012Z,60.46
2022-11-07T06:18:07.851Z,61.07
2022-11-07T06:20:35.893Z,61.65
2022-11-07T06:23:05.571Z,62.18
2022-11-07T06:25:33.659Z,62.36
2022-11-07T06:28:03.458Z,60.89
2022-11-07T06:30:31.139Z,62.45
2022-11-07T06:33:02.332Z,62.95
2022-11-07T06:35:30.418Z,63.05
2022-11-07T06:38:01.013Z,62.04
2022-11-07T06:40:28.341Z,62.56
2022-11-07T06:42:55.538Z,62.14
2022-11-07T06:45:22.932Z,63.74
2022-11-07T06:47:50.090Z,63.08
2022-11-07T06:50:17.375Z,64.27
2022-11-07T06:52:44.533Z,64.26
2022-11-07T06:55:11.774Z,64.75
2022-11-07T06:57:38.976Z,65.42
2022-11-07T07:00:07.054Z,65.39
2022-11-07T07:02:57.268Z,65.39
2022-11-07T07:05:22.556Z,65.42
2022-11-07T07:07:50.014Z,65.57
2022-11-07T07:10:17.336Z,65.48
2022-11-07T07:12:44.853Z,65.83
2022-11-07T07:15:12.130Z,65.82
2022-11-07T07:17:39.343Z,65.81
2022-11-07T07:20:07.260Z,65.07
2022-11-07T07:22:34.412Z,65.22
2022-11-07T07:25:01.731Z,65.42
2022-11-07T07:27:28.895Z,64.50
2022-11-07T07:29:56.135Z,65.18
2022-11-07T07:32:25.535Z,65.09
2022-11-07T07:34:53.092Z,64.40
2022-11-07T07:37:20.212Z,63.60
2022-11-07T07:39:47.371Z,64.43
2022-11-07T07:42:14.611Z,64.39
2022-11-07T07:44:44.980Z,64.62
2022-11-07T07:47:12.216Z,65.62
2022-11-07T07:49:39.536Z,64.96
2022-11-07T07:52:06.855Z,65.31
2022-11-07T07:54:34.012Z,65.48
2022-11-07T07:57:01.779Z,65.22
2022-11-07T07:59:28.975Z,65.23
2022-11-07T08:01:57.335Z,65.92
2022-11-07T08:04:25.053Z,65.77
2022-11-07T08:06:52.372Z,64.73
2022-11-07T08:09:19.531Z,64.50
2022-11-07T08:11:46.812Z,64.24
2022-11-07T08:14:13.973Z,64.20
2022-11-07T08:16:41.213Z,64.35
2022-11-07T08:19:08.496Z,64.26
2022-11-07T08:21:35.698Z,63.55
2022-11-07T08:24:03.826Z,63.23
2022-11-07T08:26:31.652Z,63.05
2022-11-07T08:28:58.856Z,62.52
2022-11-07T08:31:26.137Z,61.95
2022-11-07T08:33:53.305Z,61.80
2022-11-07T08:36:20.653Z,61.80
2022-11-07T08:38:47.857Z,61.11
2022-11-07T08:41:18.415Z,61.27
2022-11-07T08:43:49.574Z,60.76
2022-11-07T08:46:16.816Z,60.94
2022-11-07T08:48:44.172Z,60.08
2022-11-07T08:51:11.293Z,60.09
2022-11-07T08:53:38.658Z,58.94
2022-11-07T08:56:10.579Z,58.66
2022-11-07T08:58:38.533Z,58.59
2022-11-07T09:01:10.402Z,58.92
2022-11-07T09:03:50.702Z,57.99
2022-11-07T09:06:20.412Z,57.12
2022-11-07T09:08:47.691Z,56.75
2022-11-07T09:11:16.080Z,56.40
2022-11-07T09:13:43.251Z,56.15
2022-11-07T09:16:11.262Z,56.77
2022-11-07T09:18:38.705Z,55.75
2022-11-07T09:21:06.181Z,55.85
2022-11-07T09:23:33.251Z,55.36
2022-11-07T09:26:01.417Z,54.25
2022-11-07T09:28:29.373Z,53.75
2022-11-07T09:30:58.300Z,52.08
2022-11-07T09:33:26.374Z,51.61
2022-11-07T09:35:53.373Z,50.93
2022-11-07T09:38:20.621Z,50.47
2022-11-07T09:40:53.139Z,48.73
2022-11-07T09:43:33.534Z,48.29
2022-11-07T09:46:35.013Z,47.42
2022-11-07T09:49:20.778Z,46.40
2022-11-07T09:51:59.613Z,45.05
2022-11-07T09:54:29.784Z,45.55
2022-11-07T09:56:59.854Z,45.86
2022-11-07T09:59:59.372Z,44.68
2022-11-07T10:02:32.817Z,45.04
2022-11-07T10:05:03.423Z,44.11
2022-11-07T10:07:52.257Z,43.56
2022-11-07T10:10:54.375Z,43.44
2022-11-07T10:13:30.492Z,43.11
2022-11-07T10:16:15.830Z,43.09
2022-11-07T10:19:01.573Z,42.61
2022-11-07T10:21:45.732Z,40.68
2022-11-07T10:24:18.843Z,41.00
2022-11-07T10:26:46.613Z,40.15
2022-11-07T10:29:19.757Z,39.74
2022-11-07T10:32:04.211Z,38.77
2022-11-07T10:34:38.293Z,38.99
2022-11-07T10:37:05.463Z,38.91
2022-11-07T10:39:33.212Z,38.56
2022-11-07T10:42:11.333Z,38.63
2022-11-07T10:44:39.939Z,38.59
2022-11-07T10:47:25.174Z,37.87
2022-11-07T10:50:00.140Z,37.18
2022-11-07T10:52:28.732Z,37.44
2022-11-07T10:55:14.532Z,37.85
2022-11-07T10:57:42.863Z,36.83
2022-11-07T11:00:25.974Z,36.35
2022-11-07T11:02:56.418Z,36.92
2022-11-07T11:05:34.346Z,36.15
2022-11-07T11:08:16.041Z,36.08
2022-11-07T11:10:43.904Z,35.21
2022-11-07T11:13:34.492Z,35.44
2022-11-07T11:16:22.260Z,35.53
2022-11-07T11:18:50.301Z,35.16
2022-11-07T11:21:17.539Z,33.75
2022-11-07T11:23:46.932Z,34.90
2022-11-07T11:26:37.053Z,35.16
2022-11-07T11:29:09.454Z,35.13
2022-11-07T11:31:46.220Z,35.03
2022-11-07T11:34:16.172Z,34.66
2022-11-07T11:37:01.855Z,35.41
2022-11-07T11:39:47.585Z,34.18
2022-11-07T11:42:31.055Z,34.58
2022-11-07T11:45:04.290Z,33.74
2022-11-07T11:47:43.211Z,33.31
2022-11-07T11:50:14.229Z,32.13
2022-11-07T11:52:42.220Z,32.59
2022-11-07T11:55:17.943Z,32.24
2022-11-07T11:58:04.376Z,32.71
2022-11-07T12:00:38.059Z,32.35
2022-11-07T12:13:28.557Z,32.02
2022-11-07T12:16:18.856Z,31.24
2022-11-07T12:19:01.535Z,30.89
2022-11-07T12:21:51.503Z,30.85
2022-11-07T12:24:48.252Z,31.51
2022-11-07T12:27:25.713Z,30.59
2022-11-07T12:30:09.069Z,30.48
2022-11-07T12:33:01.017Z,28.64
2022-11-07T12:35:59.174Z,28.54
2022-11-07T12:38:50.578Z,27.28
2022-11-07T12:41:40.772Z,26.15
2022-11-07T12:44:34.652Z,25.22
2022-11-07T12:47:14.737Z,24.38
2022-11-07T12:50:31.058Z,24.01
2022-11-07T12:53:04.134Z,22.90
2022-11-07T12:55:54.376Z,21.74
2022-11-07T12:58:26.015Z,21.09
2022-11-07T13:00:54.169Z,20.92
2022-11-07T13:03:53.894Z,19.67
2022-11-07T13:06:53.293Z,19.24
2022-11-07T13:09:25.813Z,19.08
2022-11-07T13:12:06.691Z,18.71
2022-11-07T13:14:38.776Z,17.62
2022-11-07T13:17:20.267Z,18.85
2022-11-07T13:20:27.499Z,18.37
2022-11-07T13:22:59.493Z,18.66
2022-11-07T13:25:32.597Z,18.80
2022-11-07T13:28:06.533Z,18.48
2022-11-07T13:30:39.576Z,19.23
2022-11-07T13:33:07.140Z,20.86
2022-11-07T13:35:39.177Z,21.84
2022-11-07T13:38:16.897Z,23.02
2022-11-07T13:41:04.174Z,24.38
2022-11-07T13:43:42.536Z,25.36
2022-11-07T13:46:22.134Z,25.83
2022-11-07T13:48:54.865Z,27.84
2022-11-07T13:51:29.414Z,28.73
2022-11-07T13:54:17.454Z,29.82
2022-11-07T13:56:59.866Z,29.94
2022-11-07T13:59:27.014Z,31.20
2022-11-07T14:01:57.535Z,32.06
2022-11-07T14:04:28.380Z,32.38
2022-11-07T14:06:59.132Z,33.09
2022-11-07T14:09:29.215Z,33.59
2022-11-07T14:11:57.779Z,34.66
2022-11-07T14:14:27.374Z,34.84
2022-11-07T14:17:00.403Z,34.43
2022-11-07T14:19:28.651Z,35.46
2022-11-07T14:21:56.301Z,34.83
2022-11-07T14:24:29.853Z,35.84
2022-11-07T14:27:02.503Z,36.04
2022-11-07T14:29:30.211Z,36.17
2022-11-07T14:32:03.063Z,36.78
2022-11-07T14:34:30.817Z,37.09
2022-11-07T14:37:01.859Z,37.35
2022-11-07T14:39:32.973Z,37.43
2022-11-07T14:42:03.026Z,37.33
2022-11-07T14:44:54.387Z,37.08
2022-11-07T14:47:27.810Z,37.17
2022-11-07T14:49:56.094Z,38.22
2022-11-07T14:52:23.014Z,38.71
2022-11-07T14:54:57.534Z,38.76
2022-11-07T14:57:24.765Z,39.46
2022-11-07T14:59:52.180Z,39.33
2022-11-07T15:02:32.133Z,39.62
2022-11-07T15:05:09.730Z,39.63
2022-11-07T15:07:47.547Z,40.05
2022-11-07T15:10:25.063Z,41.03
2022-11-07T15:12:54.531Z,41.35
2022-11-07T15:15:24.936Z,42.18
2022-11-07T15:17:55.455Z,43.04
2022-11-07T15:20:32.942Z,43.39
2022-11-07T15:23:06.213Z,43.36
2022-11-07T15:25:35.382Z,43.99
2022-11-07T15:28:25.373Z,44.39
2022-11-07T15:30:55.891Z,45.03
2022-11-07T15:33:23.931Z,44.59
2022-11-07T15:35:56.332Z,45.24
2022-11-07T15:38:29.097Z,45.56
2022-11-07T15:40:56.375Z,45.44
2022-11-07T15:43:24.252Z,45.44
2022-11-07T15:45:53.694Z,45.78
2022-11-07T15:48:23.379Z,46.03
2022-11-07T15:50:50.737Z,46.67
2022-11-07T15:53:25.136Z,46.54
2022-11-07T15:55:54.502Z,46.74
2022-11-07T15:58:24.184Z,47.07
2022-11-07T16:00:52.536Z,47.10
2022-11-07T16:03:21.859Z,47.43
2022-11-07T16:05:50.732Z,47.56
2022-11-07T16:08:21.537Z,47.76
2022-11-07T16:10:55.979Z,47.74
2022-11-07T16:13:23.413Z,47.70
2022-11-07T16:16:01.011Z,48.05
2022-11-07T16:18:31.338Z,48.17
2022-11-07T16:20:58.453Z,48.20
2022-11-07T16:23:25.734Z,48.77
2022-11-07T16:25:52.891Z,48.62
2022-11-07T16:28:22.741Z,48.93
2022-11-07T16:30:50.853Z,49.14
2022-11-07T16:33:18.294Z,49.92
2022-11-07T16:35:48.854Z,49.53
2022-11-07T16:38:19.294Z,49.71
2022-11-07T16:40:47.415Z,50.23
2022-11-07T16:43:14.732Z,50.13
2022-11-07T16:45:54.421Z,50.59
2022-11-07T16:48:27.580Z,50.54
2022-11-07T16:50:57.106Z,50.88
2022-11-07T16:53:25.254Z,50.68
2022-11-07T16:55:54.199Z,51.07
2022-11-07T16:58:35.093Z,51.26
2022-11-07T17:01:06.103Z,51.32
2022-11-07T17:03:33.819Z,51.37
2022-11-07T17:06:03.939Z,51.89
2022-11-07T17:08:38.294Z,51.92
2022-11-07T17:11:06.097Z,52.04
2022-11-07T17:13:33.542Z,51.88
2022-11-07T17:16:00.813Z,52.47
2022-11-07T17:18:28.258Z,52.44
2022-11-07T17:20:55.975Z,52.06
2022-11-07T17:23:29.855Z,51.79
2022-11-07T17:26:02.658Z,52.35
2022-11-07T17:28:29.934Z,51.78
2022-11-07T17:30:57.094Z,52.03
2022-11-07T17:33:24.334Z,52.21
2022-11-07T17:35:55.262Z,52.49
2022-11-07T17:38:22.425Z,52.67
2022-11-07T17:40:49.492Z,52.54
2022-11-07T17:43:16.732Z,52.70
2022-11-07T17:45:44.019Z,52.56
2022-11-07T17:48:12.188Z,52.86
2022-11-07T17:50:41.191Z,52.72
2022-11-07T17:53:08.577Z,52.83
2022-11-07T17:55:36.053Z,53.04
2022-11-07T17:58:03.254Z,53.08
2022-11-07T18:00:30.535Z,53.09
2022-11-07T18:02:57.928Z,53.50
2022-11-07T18:05:31.799Z,53.54
2022-11-07T18:08:01.262Z,53.56
2022-11-07T18:10:28.332Z,53.85
2022-11-07T18:12:57.608Z,54.06
2022-11-07T18:15:24.732Z,53.63
2022-11-07T18:17:52.267Z,53.35
2022-11-07T18:20:19.414Z,53.92
2022-11-07T18:22:46.778Z,53.39
2022-11-07T18:25:13.908Z,53.48
2022-11-07T18:27:41.176Z,53.32
2022-11-07T18:30:09.090Z,54.29
2022-11-07T18:32:36.903Z,53.87
2022-11-07T18:35:07.456Z,53.92
2022-11-07T18:37:35.136Z,53.74
2022-11-07T18:40:02.453Z,53.93
2022-11-07T18:42:29.702Z,53.82
2022-11-07T18:44:57.371Z,54.67
2022-11-07T18:47:24.693Z,54.15
2022-11-07T18:49:56.891Z,54.54
2022-11-07T18:52:24.772Z,55.25
2022-11-07T18:54:52.335Z,54.82
2022-11-07T18:57:20.094Z,55.18
2022-11-07T18:59:47.787Z,55.16
2022-11-07T19:02:15.811Z,55.38
2022-11-07T19:04:46.780Z,55.11
2022-11-07T19:07:13.974Z,54.80
2022-11-07T19:09:41.375Z,55.21
2022-11-07T19:12:08.734Z,55.51
2022-11-07T19:14:35.976Z,55.70
2022-11-07T19:17:03.253Z,55.05
2022-11-07T19:19:30.452Z,55.42
2022-11-07T19:21:57.775Z,55.60
2022-11-07T19:24:25.052Z,56.18
2022-11-07T19:26:52.292Z,55.95
2022-11-07T19:29:19.488Z,55.87
2022-11-07T19:31:46.778Z,56.46
2022-11-07T19:34:14.065Z,56.35
2022-11-07T19:36:41.213Z,56.57
2022-11-07T19:39:08.660Z,57.11
2022-11-07T19:41:36.856Z,56.98
2022-11-07T19:44:05.245Z,57.21
2022-11-07T19:46:33.874Z,57.39
2022-11-07T19:49:01.217Z,57.01
2022-11-07T19:51:28.613Z,57.54
2022-11-07T19:53:58.389Z,57.44
2022-11-07T19:56:30.178Z,57.28
2022-11-07T19:58:58.861Z,57.53
2022-11-07T20:01:29.268Z,57.73
2022-11-07T20:03:57.340Z,57.81
2022-11-07T20:06:34.302Z,57.84
2022-11-07T20:09:02.044Z,57.42
2022-11-07T20:11:29.305Z,58.49
2022-11-07T20:14:02.689Z,58.24
2022-11-07T20:16:31.059Z,58.67
2022-11-07T20:18:58.931Z,58.70
2022-11-07T20:21:26.457Z,58.92
2022-11-07T20:23:57.388Z,58.57
2022-11-07T20:26:26.261Z,58.14
2022-11-07T20:28:53.668Z,58.64
2022-11-07T20:31:25.739Z,58.61
2022-11-07T20:33:54.941Z,58.39
2022-11-07T20:36:22.372Z,58.35
2022-11-07T20:38:50.464Z,58.56
2022-11-07T20:41:18.261Z,58.95
2022-11-07T20:43:45.414Z,59.12
2022-11-07T20:46:15.381Z,59.36
2022-11-07T20:48:43.817Z,59.56
2022-11-07T20:51:15.408Z,59.54
2022-11-07T20:53:49.514Z,59.64
2022-11-07T20:56:21.179Z,59.97
2022-11-07T20:58:49.214Z,59.35
2022-11-07T21:01:25.292Z,59.42
2022-11-07T21:03:53.134Z,59.05
2022-11-07T21:06:20.824Z,58.98
2022-11-07T21:08:49.861Z,59.25
2022-11-07T21:11:17.735Z,59.08
2022-11-07T21:13:51.495Z,59.20
2022-11-07T21:16:22.128Z,59.01
2022-11-07T21:18:50.985Z,59.10
2022-11-07T21:21:24.410Z,59.17
2022-11-07T21:23:52.303Z,59.11
2022-11-07T21:26:24.975Z,59.23
2022-11-07T21:28:52.814Z,58.87
2022-11-07T21:31:24.615Z,59.01
2022-11-07T21:33:52.413Z,58.84
2022-11-07T21:36:23.382Z,58.99
2022-11-07T21:38:50.695Z,59.22
2022-11-07T21:41:18.015Z,59.17
2022-11-07T21:43:45.331Z,59.54
2022-11-07T21:46:15.634Z,59.61
2022-11-07T21:48:44.014Z,59.77
2022-11-07T21:51:18.213Z,59.79
2022-11-07T21:53:46.457Z,60.13
2022-11-07T21:56:25.223Z,60.42
2022-11-07T21:58:55.015Z,60.11
2022-11-07T22:01:22.541Z,59.68
2022-11-07T22:04:09.686Z,60.24
2022-11-07T22:06:40.747Z,60.20
2022-11-07T22:09:09.902Z,60.35
2022-11-07T22:11:37.492Z,60.42
2022-11-07T22:14:04.977Z,59.99
2022-11-07T22:16:32.609Z,60.08
2022-11-07T22:19:00.775Z,60.15
2022-11-07T22:21:28.253Z,60.15
2022-11-07T22:23:56.615Z,60.02
2022-11-07T22:26:26.252Z,60.13
2022-11-07T22:28:54.300Z,60.29
2022-11-07T22:31:26.136Z,60.69
2022-11-07T22:33:54.970Z,60.29
2022-11-07T22:36:22.372Z,60.24
2022-11-07T22:38:50.491Z,60.38
2022-11-07T22:41:20.457Z,60.45
2022-11-07T22:43:49.057Z,60.37
2022-11-07T22:46:19.295Z,60.31
2022-11-07T22:48:47.895Z,60.69
2022-11-07T22:51:18.416Z,60.62
2022-11-07T22:53:45.692Z,60.64
2022-11-07T22:56:18.775Z,60.16
2022-11-07T22:58:47.251Z,60.32
2022-11-07T23:01:22.093Z,60.32
2022-11-07T23:03:50.777Z,60.48
2022-11-07T23:06:19.218Z,60.62
2022-11-07T23:08:46.972Z,60.59
2022-11-07T23:14:10.413Z,60.48
2022-11-07T23:16:40.454Z,60.98
2022-11-07T23:19:12.371Z,60.68
2022-11-07T23:21:40.141Z,60.85
2022-11-07T23:24:08.012Z,60.89
2022-11-07T23:26:36.013Z,60.83
2022-11-07T23:29:11.396Z,60.45
2022-11-07T23:31:44.335Z,60.89
2022-11-07T23:34:12.294Z,61.36
2022-11-07T23:36:44.093Z,61.18
2022-11-07T23:39:17.234Z,61.83
2022-11-07T23:41:45.338Z,61.59
2022-11-07T23:44:13.014Z,61.13
2022-11-07T23:46:59.056Z,61.64
2022-11-07T23:49:45.378Z,61.93
2022-11-07T23:52:12.833Z,61.40
2022-11-07T23:54:58.580Z,61.33
2022-11-07T23:57:26.011Z,61.52
